Thursday, June 30, 2016

  Over 48,494,314 pages visited!

GMT:
01:16
PACIFIC:
6:16:15 PM
MOUNTAIN:
7:16:15 PM

CENTRAL:
8:16:15 PM

EASTERN:
9:16:15 PM
ATLANTIC:
10:16:15 PM
NEWFOUNDLAND:
10:46:15 PM
 

 


Watches/Warnings
Current Conditions
Radar/Satellite
Lightning Images


Current Weather Conditions For TORONTO PEARSON,ON

 


A Few Clouds
 

Temperature: 22�C / 72�F
Dew Point: 06 �C / 43�F
Humidity: 35 %
Pressure: 1015.1 mbs (29.97 inches)
Visibility: 24.1 kms (15 SM)
Wind Direction: NNE (020�)
Wind Speed: 22.2 Km/h (13.8 MPH)
Max Wind Gust: No Gusts
Humidex: N/A
WindChill: N/A
    

Observation Information

Date/Time: Wednesday, June 29, 2016 @ 01:00Z
Local Time:
Metar Coded: CYYZ 300100Z 02012KT 15SM FEW100 22/06 A2998 RMK AC1 AC TR SLP151 DENSITY ALT 1400FT

 

 

                   1997-2016 The Ontario Weather Page